sensor_id;sensor_type;location;lat;lon;timestamp;P1;durP1;ratioP1;P2;durP2;ratioP2
8317;SDS011;4196;48.926;8.964;2023-09-12T00:01:54;10.53;;;6.73;;
8317;SDS011;4196;48.926;8.964;2023-09-12T00:04:40;14.90;;;6.77;;
8317;SDS011;4196;48.926;8.964;2023-09-12T00:07:26;8.03;;;5.93;;
8317;SDS011;4196;48.926;8.964;2023-09-12T00:10:13;9.53;;;6.73;;
8317;SDS011;4196;48.926;8.964;2023-09-12T00:12:59;9.63;;;6.03;;
8317;SDS011;4196;48.926;8.964;2023-09-12T00:15:48;7.60;;;5.93;;
8317;SDS011;4196;48.926;8.964;2023-09-12T00:18:35;11.60;;;6.30;;
8317;SDS011;4196;48.926;8.964;2023-09-12T00:21:21;9.70;;;5.90;;
8317;SDS011;4196;48.926;8.964;2023-09-12T00:24:08;8.77;;;6.60;;
8317;SDS011;4196;48.926;8.964;2023-09-12T00:26:54;10.17;;;6.43;;
8317;SDS011;4196;48.926;8.964;2023-09-12T00:29:41;8.63;;;6.20;;
8317;SDS011;4196;48.926;8.964;2023-09-12T00:32:27;11.53;;;6.13;;
8317;SDS011;4196;48.926;8.964;2023-09-12T00:35:13;8.60;;;6.10;;
8317;SDS011;4196;48.926;8.964;2023-09-12T00:38:00;8.93;;;5.93;;
8317;SDS011;4196;48.926;8.964;2023-09-12T00:40:47;9.40;;;6.23;;
8317;SDS011;4196;48.926;8.964;2023-09-12T00:43:34;11.40;;;5.60;;
8317;SDS011;4196;48.926;8.964;2023-09-12T00:46:20;10.50;;;6.50;;
8317;SDS011;4196;48.926;8.964;2023-09-12T00:49:08;13.17;;;6.03;;
8317;SDS011;4196;48.926;8.964;2023-09-12T00:51:56;8.50;;;5.50;;
8317;SDS011;4196;48.926;8.964;2023-09-12T00:54:44;8.00;;;5.83;;
8317;SDS011;4196;48.926;8.964;2023-09-12T00:57:31;7.47;;;6.07;;
8317;SDS011;4196;48.926;8.964;2023-09-12T01:00:20;8.37;;;5.83;;
8317;SDS011;4196;48.926;8.964;2023-09-12T01:03:07;10.50;;;6.40;;
8317;SDS011;4196;48.926;8.964;2023-09-12T01:05:54;8.67;;;6.17;;
8317;SDS011;4196;48.926;8.964;2023-09-12T01:08:40;8.23;;;5.87;;
8317;SDS011;4196;48.926;8.964;2023-09-12T01:11:27;8.23;;;5.50;;
8317;SDS011;4196;48.926;8.964;2023-09-12T01:14:14;10.43;;;5.40;;
8317;SDS011;4196;48.926;8.964;2023-09-12T01:17:01;10.67;;;6.47;;
8317;SDS011;4196;48.926;8.964;2023-09-12T01:19:48;6.77;;;5.50;;
8317;SDS011;4196;48.926;8.964;2023-09-12T01:29:14;8.30;;;6.00;;
8317;SDS011;4196;48.926;8.964;2023-09-12T01:32:02;9.23;;;5.67;;
8317;SDS011;4196;48.926;8.964;2023-09-12T01:34:49;8.03;;;6.40;;
8317;SDS011;4196;48.926;8.964;2023-09-12T01:37:36;11.00;;;6.23;;
8317;SDS011;4196;48.926;8.964;2023-09-12T01:40:24;10.97;;;6.47;;
8317;SDS011;4196;48.926;8.964;2023-09-12T01:43:21;12.73;;;6.43;;
8317;SDS011;4196;48.926;8.964;2023-09-12T01:46:09;11.47;;;7.03;;
8317;SDS011;4196;48.926;8.964;2023-09-12T01:48:56;8.80;;;5.90;;
8317;SDS011;4196;48.926;8.964;2023-09-12T01:51:44;10.97;;;6.63;;
8317;SDS011;4196;48.926;8.964;2023-09-12T01:54:31;11.40;;;5.73;;
8317;SDS011;4196;48.926;8.964;2023-09-12T01:57:21;11.80;;;6.37;;
8317;SDS011;4196;48.926;8.964;2023-09-12T02:00:07;8.20;;;6.17;;
8317;SDS011;4196;48.926;8.964;2023-09-12T02:02:55;8.80;;;6.23;;
8317;SDS011;4196;48.926;8.964;2023-09-12T02:05:42;7.23;;;5.67;;
8317;SDS011;4196;48.926;8.964;2023-09-12T02:08:29;10.27;;;6.70;;
8317;SDS011;4196;48.926;8.964;2023-09-12T02:11:15;8.97;;;6.07;;
8317;SDS011;4196;48.926;8.964;2023-09-12T02:14:02;11.17;;;6.73;;
8317;SDS011;4196;48.926;8.964;2023-09-12T02:16:49;10.53;;;6.43;;
8317;SDS011;4196;48.926;8.964;2023-09-12T02:19:39;10.43;;;6.37;;
8317;SDS011;4196;48.926;8.964;2023-09-12T02:22:25;11.77;;;6.80;;
8317;SDS011;4196;48.926;8.964;2023-09-12T02:25:12;12.87;;;6.43;;
8317;SDS011;4196;48.926;8.964;2023-09-12T02:27:58;11.43;;;7.23;;
8317;SDS011;4196;48.926;8.964;2023-09-12T02:30:44;10.97;;;7.23;;
8317;SDS011;4196;48.926;8.964;2023-09-12T02:33:30;9.60;;;6.63;;
8317;SDS011;4196;48.926;8.964;2023-09-12T02:36:17;15.63;;;7.27;;
8317;SDS011;4196;48.926;8.964;2023-09-12T02:39:03;12.10;;;7.00;;
8317;SDS011;4196;48.926;8.964;2023-09-12T02:41:50;10.73;;;5.97;;
8317;SDS011;4196;48.926;8.964;2023-09-12T02:44:36;10.83;;;6.17;;
8317;SDS011;4196;48.926;8.964;2023-09-12T02:47:23;13.00;;;8.40;;
8317;SDS011;4196;48.926;8.964;2023-09-12T02:50:09;12.47;;;7.27;;
8317;SDS011;4196;48.926;8.964;2023-09-12T02:52:55;11.07;;;6.83;;
8317;SDS011;4196;48.926;8.964;2023-09-12T02:55:42;10.03;;;6.87;;
8317;SDS011;4196;48.926;8.964;2023-09-12T02:58:28;9.40;;;6.77;;
8317;SDS011;4196;48.926;8.964;2023-09-12T03:01:18;8.77;;;6.00;;
8317;SDS011;4196;48.926;8.964;2023-09-12T03:04:06;10.37;;;6.80;;
8317;SDS011;4196;48.926;8.964;2023-09-12T03:06:53;13.80;;;6.60;;
8317;SDS011;4196;48.926;8.964;2023-09-12T03:09:39;11.17;;;7.37;;
8317;SDS011;4196;48.926;8.964;2023-09-12T03:12:26;16.47;;;6.57;;
8317;SDS011;4196;48.926;8.964;2023-09-12T03:15:13;10.23;;;6.50;;
8317;SDS011;4196;48.926;8.964;2023-09-12T03:17:59;10.13;;;6.77;;
8317;SDS011;4196;48.926;8.964;2023-09-12T03:20:46;13.50;;;7.40;;
8317;SDS011;4196;48.926;8.964;2023-09-12T03:23:33;13.53;;;6.83;;
8317;SDS011;4196;48.926;8.964;2023-09-12T03:26:19;9.80;;;6.07;;
8317;SDS011;4196;48.926;8.964;2023-09-12T03:29:06;8.87;;;6.60;;
8317;SDS011;4196;48.926;8.964;2023-09-12T03:31:53;11.10;;;7.53;;
8317;SDS011;4196;48.926;8.964;2023-09-12T03:34:40;10.63;;;6.97;;
8317;SDS011;4196;48.926;8.964;2023-09-12T03:37:26;10.83;;;7.03;;
8317;SDS011;4196;48.926;8.964;2023-09-12T03:40:15;11.23;;;7.13;;
8317;SDS011;4196;48.926;8.964;2023-09-12T03:43:01;13.67;;;7.90;;
8317;SDS011;4196;48.926;8.964;2023-09-12T03:45:48;10.67;;;7.47;;
8317;SDS011;4196;48.926;8.964;2023-09-12T03:48:35;12.40;;;8.00;;
8317;SDS011;4196;48.926;8.964;2023-09-12T03:51:23;12.47;;;7.13;;
8317;SDS011;4196;48.926;8.964;2023-09-12T03:54:10;15.50;;;7.37;;
8317;SDS011;4196;48.926;8.964;2023-09-12T03:56:56;11.47;;;7.10;;
8317;SDS011;4196;48.926;8.964;2023-09-12T03:59:42;11.23;;;6.87;;
8317;SDS011;4196;48.926;8.964;2023-09-12T04:02:29;15.60;;;9.10;;
8317;SDS011;4196;48.926;8.964;2023-09-12T04:05:15;12.30;;;8.00;;
8317;SDS011;4196;48.926;8.964;2023-09-12T04:08:02;9.77;;;7.23;;
8317;SDS011;4196;48.926;8.964;2023-09-12T04:10:49;11.50;;;7.10;;
8317;SDS011;4196;48.926;8.964;2023-09-12T04:13:35;12.37;;;7.50;;
8317;SDS011;4196;48.926;8.964;2023-09-12T04:16:22;14.67;;;7.57;;
8317;SDS011;4196;48.926;8.964;2023-09-12T04:19:09;11.53;;;7.53;;
8317;SDS011;4196;48.926;8.964;2023-09-12T04:21:56;9.80;;;6.70;;
8317;SDS011;4196;48.926;8.964;2023-09-12T04:24:42;12.97;;;8.33;;
8317;SDS011;4196;48.926;8.964;2023-09-12T04:27:30;10.43;;;7.30;;
8317;SDS011;4196;48.926;8.964;2023-09-12T04:30:16;11.63;;;7.33;;
8317;SDS011;4196;48.926;8.964;2023-09-12T04:33:03;15.70;;;7.90;;
8317;SDS011;4196;48.926;8.964;2023-09-12T04:35:49;13.27;;;7.40;;
8317;SDS011;4196;48.926;8.964;2023-09-12T04:38:36;10.83;;;7.37;;
8317;SDS011;4196;48.926;8.964;2023-09-12T04:41:23;9.03;;;6.80;;
8317;SDS011;4196;48.926;8.964;2023-09-12T04:44:10;11.77;;;7.03;;
8317;SDS011;4196;48.926;8.964;2023-09-12T04:46:57;12.10;;;7.07;;
8317;SDS011;4196;48.926;8.964;2023-09-12T04:49:44;13.13;;;8.50;;
8317;SDS011;4196;48.926;8.964;2023-09-12T04:52:31;11.83;;;7.47;;
8317;SDS011;4196;48.926;8.964;2023-09-12T04:55:19;14.17;;;7.77;;
8317;SDS011;4196;48.926;8.964;2023-09-12T04:58:05;9.60;;;7.50;;
8317;SDS011;4196;48.926;8.964;2023-09-12T05:00:53;11.27;;;7.77;;
8317;SDS011;4196;48.926;8.964;2023-09-12T05:03:41;15.20;;;8.20;;
8317;SDS011;4196;48.926;8.964;2023-09-12T05:06:27;11.83;;;7.70;;
8317;SDS011;4196;48.926;8.964;2023-09-12T05:09:14;11.60;;;7.10;;
8317;SDS011;4196;48.926;8.964;2023-09-12T05:12:00;13.37;;;8.90;;
8317;SDS011;4196;48.926;8.964;2023-09-12T05:14:47;12.17;;;7.13;;
8317;SDS011;4196;48.926;8.964;2023-09-12T05:17:33;13.87;;;7.70;;
8317;SDS011;4196;48.926;8.964;2023-09-12T05:20:20;11.70;;;6.73;;
8317;SDS011;4196;48.926;8.964;2023-09-12T05:23:07;14.97;;;7.23;;
8317;SDS011;4196;48.926;8.964;2023-09-12T05:25:54;10.27;;;6.70;;
8317;SDS011;4196;48.926;8.964;2023-09-12T05:28:40;11.33;;;6.67;;
8317;SDS011;4196;48.926;8.964;2023-09-12T05:31:28;14.73;;;7.53;;
8317;SDS011;4196;48.926;8.964;2023-09-12T05:34:14;11.97;;;7.23;;
8317;SDS011;4196;48.926;8.964;2023-09-12T05:37:01;13.07;;;8.03;;
8317;SDS011;4196;48.926;8.964;2023-09-12T05:39:49;11.50;;;7.57;;
8317;SDS011;4196;48.926;8.964;2023-09-12T05:42:35;9.80;;;6.83;;
8317;SDS011;4196;48.926;8.964;2023-09-12T05:45:22;13.90;;;7.67;;
8317;SDS011;4196;48.926;8.964;2023-09-12T05:48:09;12.93;;;7.40;;
8317;SDS011;4196;48.926;8.964;2023-09-12T05:50:56;12.57;;;7.93;;
8317;SDS011;4196;48.926;8.964;2023-09-12T05:53:43;21.23;;;7.67;;
8317;SDS011;4196;48.926;8.964;2023-09-12T05:56:29;13.17;;;8.20;;
8317;SDS011;4196;48.926;8.964;2023-09-12T05:59:16;13.00;;;8.00;;
8317;SDS011;4196;48.926;8.964;2023-09-12T06:02:06;12.50;;;7.73;;
8317;SDS011;4196;48.926;8.964;2023-09-12T06:04:55;12.47;;;7.97;;
8317;SDS011;4196;48.926;8.964;2023-09-12T06:07:42;10.40;;;8.27;;
8317;SDS011;4196;48.926;8.964;2023-09-12T06:10:28;10.57;;;7.77;;
8317;SDS011;4196;48.926;8.964;2023-09-12T06:13:15;11.67;;;7.40;;
8317;SDS011;4196;48.926;8.964;2023-09-12T06:16:01;17.30;;;8.40;;
8317;SDS011;4196;48.926;8.964;2023-09-12T06:18:48;10.93;;;7.87;;
8317;SDS011;4196;48.926;8.964;2023-09-12T06:21:40;14.43;;;8.70;;
8317;SDS011;4196;48.926;8.964;2023-09-12T06:24:28;9.53;;;7.67;;
8317;SDS011;4196;48.926;8.964;2023-09-12T06:27:15;11.13;;;7.43;;
8317;SDS011;4196;48.926;8.964;2023-09-12T06:30:07;10.13;;;7.77;;
8317;SDS011;4196;48.926;8.964;2023-09-12T06:32:54;13.03;;;7.93;;
8317;SDS011;4196;48.926;8.964;2023-09-12T06:35:41;11.97;;;7.30;;
8317;SDS011;4196;48.926;8.964;2023-09-12T06:38:28;12.30;;;8.07;;
8317;SDS011;4196;48.926;8.964;2023-09-12T06:41:14;12.97;;;8.03;;
8317;SDS011;4196;48.926;8.964;2023-09-12T06:44:01;12.53;;;7.27;;
8317;SDS011;4196;48.926;8.964;2023-09-12T06:46:49;12.57;;;7.53;;
8317;SDS011;4196;48.926;8.964;2023-09-12T06:49:36;12.73;;;7.17;;
8317;SDS011;4196;48.926;8.964;2023-09-12T06:52:23;11.27;;;7.20;;
8317;SDS011;4196;48.926;8.964;2023-09-12T06:55:10;11.57;;;7.23;;
8317;SDS011;4196;48.926;8.964;2023-09-12T06:57:56;9.33;;;7.33;;
8317;SDS011;4196;48.926;8.964;2023-09-12T07:00:43;12.47;;;7.13;;
8317;SDS011;4196;48.926;8.964;2023-09-12T07:03:30;12.90;;;7.13;;
8317;SDS011;4196;48.926;8.964;2023-09-12T07:06:18;14.40;;;8.10;;
8317;SDS011;4196;48.926;8.964;2023-09-12T07:09:04;10.87;;;7.67;;
8317;SDS011;4196;48.926;8.964;2023-09-12T07:11:51;10.23;;;8.07;;
8317;SDS011;4196;48.926;8.964;2023-09-12T07:14:38;13.67;;;7.80;;
8317;SDS011;4196;48.926;8.964;2023-09-12T07:17:27;14.47;;;8.30;;
8317;SDS011;4196;48.926;8.964;2023-09-12T07:20:14;11.00;;;7.53;;
8317;SDS011;4196;48.926;8.964;2023-09-12T07:23:02;10.33;;;7.03;;
8317;SDS011;4196;48.926;8.964;2023-09-12T07:25:48;17.93;;;9.27;;
8317;SDS011;4196;48.926;8.964;2023-09-12T07:28:35;13.80;;;7.87;;
8317;SDS011;4196;48.926;8.964;2023-09-12T07:31:21;14.43;;;7.80;;
8317;SDS011;4196;48.926;8.964;2023-09-12T07:34:08;14.10;;;8.67;;
8317;SDS011;4196;48.926;8.964;2023-09-12T07:36:55;16.60;;;8.07;;
8317;SDS011;4196;48.926;8.964;2023-09-12T07:39:42;14.63;;;9.13;;
8317;SDS011;4196;48.926;8.964;2023-09-12T07:42:28;12.80;;;8.20;;
8317;SDS011;4196;48.926;8.964;2023-09-12T07:45:15;14.73;;;8.27;;
8317;SDS011;4196;48.926;8.964;2023-09-12T07:48:02;14.33;;;8.37;;
8317;SDS011;4196;48.926;8.964;2023-09-12T07:50:51;12.30;;;7.03;;
8317;SDS011;4196;48.926;8.964;2023-09-12T07:53:37;14.83;;;8.00;;
8317;SDS011;4196;48.926;8.964;2023-09-12T07:56:24;11.53;;;7.70;;
8317;SDS011;4196;48.926;8.964;2023-09-12T07:59:11;11.03;;;6.87;;
8317;SDS011;4196;48.926;8.964;2023-09-12T08:01:58;10.97;;;7.27;;
8317;SDS011;4196;48.926;8.964;2023-09-12T08:04:44;10.53;;;7.10;;
8317;SDS011;4196;48.926;8.964;2023-09-12T08:07:31;12.90;;;8.20;;
8317;SDS011;4196;48.926;8.964;2023-09-12T08:10:17;11.90;;;7.00;;
8317;SDS011;4196;48.926;8.964;2023-09-12T08:13:04;11.67;;;8.13;;
8317;SDS011;4196;48.926;8.964;2023-09-12T08:15:50;10.90;;;7.13;;
8317;SDS011;4196;48.926;8.964;2023-09-12T08:18:36;11.43;;;7.13;;
8317;SDS011;4196;48.926;8.964;2023-09-12T08:21:23;18.57;;;8.00;;
8317;SDS011;4196;48.926;8.964;2023-09-12T08:24:09;9.70;;;6.97;;
8317;SDS011;4196;48.926;8.964;2023-09-12T08:26:55;12.93;;;7.30;;
8317;SDS011;4196;48.926;8.964;2023-09-12T08:29:42;11.20;;;7.00;;
8317;SDS011;4196;48.926;8.964;2023-09-12T08:32:30;15.43;;;6.37;;
8317;SDS011;4196;48.926;8.964;2023-09-12T08:35:17;13.53;;;6.77;;
8317;SDS011;4196;48.926;8.964;2023-09-12T08:38:03;12.10;;;7.23;;
8317;SDS011;4196;48.926;8.964;2023-09-12T08:40:50;11.00;;;6.30;;
8317;SDS011;4196;48.926;8.964;2023-09-12T08:43:37;10.60;;;6.70;;
8317;SDS011;4196;48.926;8.964;2023-09-12T08:46:24;12.37;;;6.80;;
8317;SDS011;4196;48.926;8.964;2023-09-12T08:49:10;7.13;;;5.83;;
8317;SDS011;4196;48.926;8.964;2023-09-12T08:51:57;11.23;;;6.47;;
8317;SDS011;4196;48.926;8.964;2023-09-12T08:54:44;12.40;;;6.33;;
8317;SDS011;4196;48.926;8.964;2023-09-12T08:57:31;9.00;;;6.23;;
8317;SDS011;4196;48.926;8.964;2023-09-12T09:00:19;9.27;;;5.83;;
8317;SDS011;4196;48.926;8.964;2023-09-12T09:03:07;10.70;;;5.90;;
8317;SDS011;4196;48.926;8.964;2023-09-12T09:05:54;11.60;;;5.93;;
8317;SDS011;4196;48.926;8.964;2023-09-12T09:08:42;10.53;;;6.80;;
8317;SDS011;4196;48.926;8.964;2023-09-12T09:11:29;9.93;;;5.87;;
8317;SDS011;4196;48.926;8.964;2023-09-12T09:14:16;10.67;;;5.67;;
8317;SDS011;4196;48.926;8.964;2023-09-12T09:17:02;12.30;;;5.80;;
8317;SDS011;4196;48.926;8.964;2023-09-12T09:19:49;8.93;;;5.47;;
8317;SDS011;4196;48.926;8.964;2023-09-12T09:22:35;11.63;;;6.00;;
8317;SDS011;4196;48.926;8.964;2023-09-12T09:25:22;18.13;;;6.23;;
8317;SDS011;4196;48.926;8.964;2023-09-12T09:28:18;14.20;;;5.85;;
8317;SDS011;4196;48.926;8.964;2023-09-12T09:31:11;8.73;;;5.85;;
8317;SDS011;4196;48.926;8.964;2023-09-12T09:33:59;11.05;;;6.65;;
8317;SDS011;4196;48.926;8.964;2023-09-12T09:36:48;11.68;;;5.90;;
8317;SDS011;4196;48.926;8.964;2023-09-12T09:39:38;10.48;;;5.55;;
8317;SDS011;4196;48.926;8.964;2023-09-12T09:42:24;8.97;;;5.80;;
8317;SDS011;4196;48.926;8.964;2023-09-12T09:45:15;8.60;;;5.03;;
8317;SDS011;4196;48.926;8.964;2023-09-12T09:48:05;9.80;;;5.78;;
8317;SDS011;4196;48.926;8.964;2023-09-12T09:51:01;8.55;;;5.55;;
8317;SDS011;4196;48.926;8.964;2023-09-12T09:53:51;13.15;;;6.63;;
8317;SDS011;4196;48.926;8.964;2023-09-12T09:56:45;15.80;;;5.53;;
8317;SDS011;4196;48.926;8.964;2023-09-12T09:59:35;10.07;;;5.28;;
8317;SDS011;4196;48.926;8.964;2023-09-12T10:02:22;8.65;;;5.35;;
8317;SDS011;4196;48.926;8.964;2023-09-12T10:05:12;8.75;;;5.50;;
8317;SDS011;4196;48.926;8.964;2023-09-12T10:07:59;14.82;;;5.88;;
8317;SDS011;4196;48.926;8.964;2023-09-12T10:10:48;8.40;;;5.40;;
8317;SDS011;4196;48.926;8.964;2023-09-12T10:13:36;13.65;;;6.60;;
8317;SDS011;4196;48.926;8.964;2023-09-12T10:16:29;10.65;;;6.70;;
8317;SDS011;4196;48.926;8.964;2023-09-12T10:19:18;8.65;;;5.28;;
8317;SDS011;4196;48.926;8.964;2023-09-12T10:25:49;8.93;;;5.78;;
8317;SDS011;4196;48.926;8.964;2023-09-12T10:28:39;9.27;;;5.55;;
8317;SDS011;4196;48.926;8.964;2023-09-12T10:31:27;12.85;;;5.57;;
8317;SDS011;4196;48.926;8.964;2023-09-12T10:34:15;11.35;;;5.97;;
8317;SDS011;4196;48.926;8.964;2023-09-12T10:37:04;10.30;;;5.38;;
8317;SDS011;4196;48.926;8.964;2023-09-12T10:39:54;7.65;;;5.53;;
8317;SDS011;4196;48.926;8.964;2023-09-12T10:42:42;10.10;;;5.57;;
8317;SDS011;4196;48.926;8.964;2023-09-12T10:45:33;9.80;;;5.90;;
8317;SDS011;4196;48.926;8.964;2023-09-12T10:48:23;10.43;;;5.53;;
8317;SDS011;4196;48.926;8.964;2023-09-12T10:51:25;10.43;;;5.70;;
8317;SDS011;4196;48.926;8.964;2023-09-12T10:54:40;9.80;;;5.70;;
8317;SDS011;4196;48.926;8.964;2023-09-12T11:02:36;7.90;;;5.40;;
8317;SDS011;4196;48.926;8.964;2023-09-12T11:06:19;8.05;;;5.53;;
8317;SDS011;4196;48.926;8.964;2023-09-12T11:16:27;8.85;;;5.93;;
8317;SDS011;4196;48.926;8.964;2023-09-12T11:23:53;9.50;;;5.55;;
8317;SDS011;4196;48.926;8.964;2023-09-12T11:31:31;7.85;;;5.30;;
8317;SDS011;4196;48.926;8.964;2023-09-12T11:34:21;6.88;;;5.45;;
8317;SDS011;4196;48.926;8.964;2023-09-12T11:37:10;11.90;;;5.63;;
8317;SDS011;4196;48.926;8.964;2023-09-12T11:42:59;6.13;;;5.30;;
8317;SDS011;4196;48.926;8.964;2023-09-12T11:45:46;9.32;;;5.43;;
8317;SDS011;4196;48.926;8.964;2023-09-12T11:48:45;8.27;;;5.45;;
8317;SDS011;4196;48.926;8.964;2023-09-12T11:51:32;6.78;;;4.93;;
8317;SDS011;4196;48.926;8.964;2023-09-12T11:54:20;6.35;;;5.30;;
8317;SDS011;4196;48.926;8.964;2023-09-12T11:57:12;7.78;;;5.35;;
8317;SDS011;4196;48.926;8.964;2023-09-12T12:00:02;11.43;;;4.65;;
8317;SDS011;4196;48.926;8.964;2023-09-12T12:02:57;10.10;;;6.25;;
8317;SDS011;4196;48.926;8.964;2023-09-12T12:05:44;7.40;;;4.78;;
8317;SDS011;4196;48.926;8.964;2023-09-12T12:08:31;9.95;;;5.40;;
8317;SDS011;4196;48.926;8.964;2023-09-12T12:11:18;6.60;;;5.07;;
8317;SDS011;4196;48.926;8.964;2023-09-12T12:14:13;10.68;;;5.30;;
8317;SDS011;4196;48.926;8.964;2023-09-12T12:17:08;11.55;;;5.22;;
8317;SDS011;4196;48.926;8.964;2023-09-12T12:19:56;8.85;;;5.10;;
8317;SDS011;4196;48.926;8.964;2023-09-12T12:22:43;9.65;;;6.00;;
8317;SDS011;4196;48.926;8.964;2023-09-12T12:25:31;7.22;;;5.70;;
8317;SDS011;4196;48.926;8.964;2023-09-12T12:28:20;10.25;;;4.93;;
8317;SDS011;4196;48.926;8.964;2023-09-12T12:31:07;5.95;;;4.60;;
8317;SDS011;4196;48.926;8.964;2023-09-12T12:33:54;5.78;;;4.95;;
8317;SDS011;4196;48.926;8.964;2023-09-12T12:37:01;10.75;;;5.47;;
8317;SDS011;4196;48.926;8.964;2023-09-12T12:39:48;10.32;;;5.53;;
8317;SDS011;4196;48.926;8.964;2023-09-12T12:42:35;8.77;;;5.18;;
8317;SDS011;4196;48.926;8.964;2023-09-12T12:46:12;7.00;;;4.85;;
8317;SDS011;4196;48.926;8.964;2023-09-12T12:49:05;10.20;;;5.30;;
8317;SDS011;4196;48.926;8.964;2023-09-12T12:52:09;7.10;;;4.88;;
8317;SDS011;4196;48.926;8.964;2023-09-12T12:55:04;6.35;;;4.75;;
8317;SDS011;4196;48.926;8.964;2023-09-12T12:57:52;9.40;;;5.15;;
8317;SDS011;4196;48.926;8.964;2023-09-12T13:00:38;5.95;;;4.68;;
8317;SDS011;4196;48.926;8.964;2023-09-12T13:03:25;6.75;;;5.20;;
8317;SDS011;4196;48.926;8.964;2023-09-12T13:06:12;8.02;;;4.88;;
8317;SDS011;4196;48.926;8.964;2023-09-12T13:09:03;6.90;;;4.72;;
8317;SDS011;4196;48.926;8.964;2023-09-12T13:11:52;7.15;;;4.85;;
8317;SDS011;4196;48.926;8.964;2023-09-12T13:14:39;7.45;;;4.63;;
8317;SDS011;4196;48.926;8.964;2023-09-12T13:17:26;8.00;;;4.90;;
8317;SDS011;4196;48.926;8.964;2023-09-12T13:20:13;5.78;;;4.20;;
8317;SDS011;4196;48.926;8.964;2023-09-12T13:23:00;6.22;;;4.85;;
8317;SDS011;4196;48.926;8.964;2023-09-12T13:25:46;7.38;;;4.63;;
8317;SDS011;4196;48.926;8.964;2023-09-12T13:28:33;8.40;;;4.15;;
8317;SDS011;4196;48.926;8.964;2023-09-12T13:31:20;9.38;;;5.00;;
8317;SDS011;4196;48.926;8.964;2023-09-12T13:34:07;7.40;;;4.38;;
8317;SDS011;4196;48.926;8.964;2023-09-12T13:36:54;6.78;;;4.55;;
8317;SDS011;4196;48.926;8.964;2023-09-12T13:39:57;10.13;;;4.10;;
8317;SDS011;4196;48.926;8.964;2023-09-12T13:42:45;6.78;;;4.60;;
8317;SDS011;4196;48.926;8.964;2023-09-12T13:45:32;7.68;;;4.43;;
8317;SDS011;4196;48.926;8.964;2023-09-12T13:48:20;6.75;;;4.45;;
8317;SDS011;4196;48.926;8.964;2023-09-12T13:51:07;7.60;;;4.50;;
8317;SDS011;4196;48.926;8.964;2023-09-12T13:53:53;6.10;;;4.10;;
8317;SDS011;4196;48.926;8.964;2023-09-12T13:56:41;6.20;;;4.78;;
8317;SDS011;4196;48.926;8.964;2023-09-12T13:59:27;5.50;;;4.75;;
8317;SDS011;4196;48.926;8.964;2023-09-12T14:02:30;6.13;;;4.20;;
8317;SDS011;4196;48.926;8.964;2023-09-12T14:05:17;10.30;;;4.68;;
8317;SDS011;4196;48.926;8.964;2023-09-12T14:08:04;5.57;;;4.72;;
8317;SDS011;4196;48.926;8.964;2023-09-12T14:10:51;6.00;;;4.05;;
8317;SDS011;4196;48.926;8.964;2023-09-12T14:13:39;6.15;;;4.25;;
8317;SDS011;4196;48.926;8.964;2023-09-12T14:16:26;6.95;;;4.65;;
8317;SDS011;4196;48.926;8.964;2023-09-12T14:19:13;6.80;;;4.40;;
8317;SDS011;4196;48.926;8.964;2023-09-12T14:22:01;5.55;;;4.43;;
8317;SDS011;4196;48.926;8.964;2023-09-12T14:24:50;5.07;;;4.05;;
8317;SDS011;4196;48.926;8.964;2023-09-12T14:27:36;8.95;;;4.40;;
8317;SDS011;4196;48.926;8.964;2023-09-12T14:30:23;7.03;;;4.80;;
8317;SDS011;4196;48.926;8.964;2023-09-12T14:33:13;7.22;;;4.68;;
8317;SDS011;4196;48.926;8.964;2023-09-12T14:36:03;9.07;;;4.60;;
8317;SDS011;4196;48.926;8.964;2023-09-12T14:38:52;7.22;;;4.70;;
8317;SDS011;4196;48.926;8.964;2023-09-12T14:41:39;6.85;;;4.93;;
8317;SDS011;4196;48.926;8.964;2023-09-12T14:44:25;7.63;;;4.68;;
8317;SDS011;4196;48.926;8.964;2023-09-12T14:47:12;4.82;;;4.20;;
8317;SDS011;4196;48.926;8.964;2023-09-12T14:49:59;6.93;;;4.38;;
8317;SDS011;4196;48.926;8.964;2023-09-12T14:52:46;6.57;;;4.75;;
8317;SDS011;4196;48.926;8.964;2023-09-12T14:55:33;5.47;;;4.60;;
8317;SDS011;4196;48.926;8.964;2023-09-12T14:58:20;12.63;;;6.03;;
8317;SDS011;4196;48.926;8.964;2023-09-12T15:01:07;4.90;;;4.40;;
8317;SDS011;4196;48.926;8.964;2023-09-12T15:03:54;6.78;;;4.85;;
8317;SDS011;4196;48.926;8.964;2023-09-12T15:06:41;6.05;;;4.43;;
8317;SDS011;4196;48.926;8.964;2023-09-12T15:09:28;7.03;;;4.50;;
8317;SDS011;4196;48.926;8.964;2023-09-12T15:12:15;5.93;;;4.63;;
8317;SDS011;4196;48.926;8.964;2023-09-12T15:15:03;5.15;;;4.30;;
8317;SDS011;4196;48.926;8.964;2023-09-12T15:17:49;5.70;;;4.55;;
8317;SDS011;4196;48.926;8.964;2023-09-12T15:20:36;4.60;;;4.15;;
8317;SDS011;4196;48.926;8.964;2023-09-12T15:23:23;6.30;;;4.55;;
8317;SDS011;4196;48.926;8.964;2023-09-12T15:26:10;7.35;;;4.63;;
8317;SDS011;4196;48.926;8.964;2023-09-12T15:28:57;6.85;;;4.57;;
8317;SDS011;4196;48.926;8.964;2023-09-12T15:31:47;4.70;;;4.30;;
8317;SDS011;4196;48.926;8.964;2023-09-12T15:34:34;5.60;;;4.55;;
8317;SDS011;4196;48.926;8.964;2023-09-12T15:37:21;6.45;;;4.60;;
8317;SDS011;4196;48.926;8.964;2023-09-12T15:40:08;5.57;;;4.22;;
8317;SDS011;4196;48.926;8.964;2023-09-12T15:42:55;6.80;;;4.63;;
8317;SDS011;4196;48.926;8.964;2023-09-12T15:45:42;5.43;;;4.55;;
8317;SDS011;4196;48.926;8.964;2023-09-12T15:48:36;6.32;;;4.43;;
8317;SDS011;4196;48.926;8.964;2023-09-12T15:51:23;4.80;;;4.30;;
8317;SDS011;4196;48.926;8.964;2023-09-12T15:54:10;5.45;;;4.68;;
8317;SDS011;4196;48.926;8.964;2023-09-12T15:56:57;5.63;;;4.15;;
8317;SDS011;4196;48.926;8.964;2023-09-12T15:59:44;4.93;;;4.45;;
8317;SDS011;4196;48.926;8.964;2023-09-12T16:02:30;7.82;;;4.60;;
8317;SDS011;4196;48.926;8.964;2023-09-12T16:05:17;5.97;;;4.50;;
8317;SDS011;4196;48.926;8.964;2023-09-12T16:08:04;7.80;;;4.78;;
8317;SDS011;4196;48.926;8.964;2023-09-12T16:10:50;6.13;;;4.50;;
8317;SDS011;4196;48.926;8.964;2023-09-12T16:13:37;14.07;;;5.95;;
8317;SDS011;4196;48.926;8.964;2023-09-12T16:16:24;6.28;;;4.25;;
8317;SDS011;4196;48.926;8.964;2023-09-12T16:19:11;8.10;;;4.85;;
8317;SDS011;4196;48.926;8.964;2023-09-12T16:21:58;6.40;;;4.55;;
8317;SDS011;4196;48.926;8.964;2023-09-12T16:24:44;7.03;;;4.38;;
8317;SDS011;4196;48.926;8.964;2023-09-12T16:27:31;5.68;;;4.80;;
8317;SDS011;4196;48.926;8.964;2023-09-12T16:30:18;6.55;;;4.35;;
8317;SDS011;4196;48.926;8.964;2023-09-12T16:33:05;7.55;;;4.82;;
8317;SDS011;4196;48.926;8.964;2023-09-12T16:35:51;6.10;;;4.60;;
8317;SDS011;4196;48.926;8.964;2023-09-12T16:38:39;5.32;;;4.18;;
8317;SDS011;4196;48.926;8.964;2023-09-12T16:41:25;8.23;;;4.75;;
8317;SDS011;4196;48.926;8.964;2023-09-12T16:44:12;5.28;;;4.38;;
8317;SDS011;4196;48.926;8.964;2023-09-12T16:46:59;6.80;;;4.20;;
8317;SDS011;4196;48.926;8.964;2023-09-12T16:49:46;5.70;;;4.95;;
8317;SDS011;4196;48.926;8.964;2023-09-12T16:52:33;7.72;;;4.47;;
8317;SDS011;4196;48.926;8.964;2023-09-12T16:55:20;5.43;;;4.15;;
8317;SDS011;4196;48.926;8.964;2023-09-12T16:58:07;6.70;;;4.20;;
8317;SDS011;4196;48.926;8.964;2023-09-12T17:00:53;9.20;;;4.82;;
8317;SDS011;4196;48.926;8.964;2023-09-12T17:03:41;6.20;;;4.53;;
8317;SDS011;4196;48.926;8.964;2023-09-12T17:06:30;6.38;;;4.60;;
8317;SDS011;4196;48.926;8.964;2023-09-12T17:09:17;5.90;;;4.47;;
8317;SDS011;4196;48.926;8.964;2023-09-12T17:12:04;5.80;;;4.75;;
8317;SDS011;4196;48.926;8.964;2023-09-12T17:14:53;8.10;;;4.55;;
8317;SDS011;4196;48.926;8.964;2023-09-12T17:17:40;5.60;;;4.18;;
8317;SDS011;4196;48.926;8.964;2023-09-12T17:20:26;4.85;;;4.45;;
8317;SDS011;4196;48.926;8.964;2023-09-12T17:23:13;7.38;;;4.90;;
8317;SDS011;4196;48.926;8.964;2023-09-12T17:26:00;5.75;;;4.50;;
8317;SDS011;4196;48.926;8.964;2023-09-12T17:28:47;6.75;;;4.70;;
8317;SDS011;4196;48.926;8.964;2023-09-12T17:31:33;9.40;;;5.20;;
8317;SDS011;4196;48.926;8.964;2023-09-12T17:34:24;10.95;;;5.60;;
8317;SDS011;4196;48.926;8.964;2023-09-12T17:37:25;7.72;;;5.38;;
8317;SDS011;4196;48.926;8.964;2023-09-12T17:40:11;6.00;;;4.40;;
8317;SDS011;4196;48.926;8.964;2023-09-12T17:42:58;8.05;;;4.55;;
8317;SDS011;4196;48.926;8.964;2023-09-12T17:45:45;6.57;;;4.68;;
8317;SDS011;4196;48.926;8.964;2023-09-12T17:48:45;6.65;;;4.68;;
8317;SDS011;4196;48.926;8.964;2023-09-12T17:51:32;7.30;;;4.55;;